Alston, Georgia
Current Conditions -  °F | °C
As of 11:35 AM on Monday 24 Nov 2014 (Local Time) from KVDI Reporting Station
Overcast Overcast  
Wind Chill: 70°   Ceiling: 5500
Heat Index: 70°   Visibility: 7mi
Dew Point: 70°   Wind: 8mph
Humidity: 100%   Direction: 240°WSW
Pressure: 29.87"   Gusts: NA
Location:  32.08°N, 82.48°W
Report Text: KVDI 241635Z AUTO 24007KT 7SM SCT010 SCT027 OVC055 21/21 A2987 RMK AO2 LTG DSNT E
Loading
Personal Weather Stations






























Interactive Weather Map New forecast layout! Learn more

10-Day Weather Forecast

Advertisements
Track Severe Weather on mobile